sensor_id;sensor_type;location;lat;lon;timestamp;temperature;humidity
7648;DHT22;3866;48.020;11.720;2023-06-22T00:01:16;20.40;99.90
7648;DHT22;3866;48.020;11.720;2023-06-22T00:03:43;20.30;99.90
7648;DHT22;3866;48.020;11.720;2023-06-22T00:06:10;20.10;99.90
7648;DHT22;3866;48.020;11.720;2023-06-22T00:08:36;20.30;99.90
7648;DHT22;3866;48.020;11.720;2023-06-22T00:11:03;20.40;99.90
7648;DHT22;3866;48.020;11.720;2023-06-22T00:13:31;20.40;99.90
7648;DHT22;3866;48.020;11.720;2023-06-22T00:15:58;20.40;99.90
7648;DHT22;3866;48.020;11.720;2023-06-22T00:18:25;20.40;99.90
7648;DHT22;3866;48.020;11.720;2023-06-22T00:20:54;20.40;99.90
7648;DHT22;3866;48.020;11.720;2023-06-22T00:23:23;20.40;99.90
7648;DHT22;3866;48.020;11.720;2023-06-22T00:25:50;20.50;99.90
7648;DHT22;3866;48.020;11.720;2023-06-22T00:28:17;20.50;99.90
7648;DHT22;3866;48.020;11.720;2023-06-22T00:30:46;20.40;99.90
7648;DHT22;3866;48.020;11.720;2023-06-22T00:33:13;20.30;99.90
7648;DHT22;3866;48.020;11.720;2023-06-22T00:35:41;20.20;99.90
7648;DHT22;3866;48.020;11.720;2023-06-22T00:38:08;20.20;99.90
7648;DHT22;3866;48.020;11.720;2023-06-22T00:40:35;20.20;99.90
7648;DHT22;3866;48.020;11.720;2023-06-22T00:43:03;20.20;99.90
7648;DHT22;3866;48.020;11.720;2023-06-22T00:45:30;20.20;99.90
7648;DHT22;3866;48.020;11.720;2023-06-22T00:47:58;20.20;99.90
7648;DHT22;3866;48.020;11.720;2023-06-22T00:50:27;20.10;99.90
7648;DHT22;3866;48.020;11.720;2023-06-22T00:52:55;20.00;99.90
7648;DHT22;3866;48.020;11.720;2023-06-22T00:55:24;20.00;99.90
7648;DHT22;3866;48.020;11.720;2023-06-22T00:57:52;20.10;99.90
7648;DHT22;3866;48.020;11.720;2023-06-22T01:00:22;20.20;99.90
7648;DHT22;3866;48.020;11.720;2023-06-22T01:02:51;20.20;99.90
7648;DHT22;3866;48.020;11.720;2023-06-22T01:05:20;20.10;99.90
7648;DHT22;3866;48.020;11.720;2023-06-22T01:07:56;20.10;99.90
7648;DHT22;3866;48.020;11.720;2023-06-22T01:10:31;20.10;99.90
7648;DHT22;3866;48.020;11.720;2023-06-22T01:13:04;20.10;99.90
7648;DHT22;3866;48.020;11.720;2023-06-22T01:15:35;20.00;99.90
7648;DHT22;3866;48.020;11.720;2023-06-22T01:18:04;20.10;99.90
7648;DHT22;3866;48.020;11.720;2023-06-22T01:20:34;19.90;99.90
7648;DHT22;3866;48.020;11.720;2023-06-22T01:23:10;19.70;99.90
7648;DHT22;3866;48.020;11.720;2023-06-22T01:25:45;19.70;99.90
7648;DHT22;3866;48.020;11.720;2023-06-22T01:28:24;19.80;99.90
7648;DHT22;3866;48.020;11.720;2023-06-22T01:30:54;19.80;99.90
7648;DHT22;3866;48.020;11.720;2023-06-22T01:33:33;19.70;99.90
7648;DHT22;3866;48.020;11.720;2023-06-22T01:36:02;19.60;99.90
7648;DHT22;3866;48.020;11.720;2023-06-22T01:38:30;19.60;99.90
7648;DHT22;3866;48.020;11.720;2023-06-22T01:40:57;19.50;99.90
7648;DHT22;3866;48.020;11.720;2023-06-22T01:43:27;19.50;99.90
7648;DHT22;3866;48.020;11.720;2023-06-22T01:45:56;19.40;99.90
7648;DHT22;3866;48.020;11.720;2023-06-22T01:48:24;19.50;99.90
7648;DHT22;3866;48.020;11.720;2023-06-22T01:50:53;19.40;99.90
7648;DHT22;3866;48.020;11.720;2023-06-22T01:53:21;19.40;99.90
7648;DHT22;3866;48.020;11.720;2023-06-22T01:55:48;19.40;99.90
7648;DHT22;3866;48.020;11.720;2023-06-22T01:58:15;19.40;99.90
7648;DHT22;3866;48.020;11.720;2023-06-22T02:00:47;19.40;99.90
7648;DHT22;3866;48.020;11.720;2023-06-22T02:03:19;19.30;99.90
7648;DHT22;3866;48.020;11.720;2023-06-22T02:05:50;19.30;99.90
7648;DHT22;3866;48.020;11.720;2023-06-22T02:08:20;19.30;99.90
7648;DHT22;3866;48.020;11.720;2023-06-22T02:10:52;19.40;99.90
7648;DHT22;3866;48.020;11.720;2023-06-22T02:13:19;19.40;99.90
7648;DHT22;3866;48.020;11.720;2023-06-22T02:15:47;19.40;99.90
7648;DHT22;3866;48.020;11.720;2023-06-22T02:18:16;19.40;99.90
7648;DHT22;3866;48.020;11.720;2023-06-22T02:20:43;19.40;99.90
7648;DHT22;3866;48.020;11.720;2023-06-22T02:23:10;19.40;99.90
7648;DHT22;3866;48.020;11.720;2023-06-22T02:25:36;19.40;99.90
7648;DHT22;3866;48.020;11.720;2023-06-22T02:28:04;19.40;99.90
7648;DHT22;3866;48.020;11.720;2023-06-22T02:30:31;19.40;99.90
7648;DHT22;3866;48.020;11.720;2023-06-22T02:32:58;19.30;99.90
7648;DHT22;3866;48.020;11.720;2023-06-22T02:35:27;19.30;99.90
7648;DHT22;3866;48.020;11.720;2023-06-22T02:37:57;19.30;99.90
7648;DHT22;3866;48.020;11.720;2023-06-22T02:40:25;19.30;99.90
7648;DHT22;3866;48.020;11.720;2023-06-22T02:42:52;19.30;99.90
7648;DHT22;3866;48.020;11.720;2023-06-22T02:45:19;19.30;99.90
7648;DHT22;3866;48.020;11.720;2023-06-22T02:47:46;19.30;99.90
7648;DHT22;3866;48.020;11.720;2023-06-22T02:50:13;19.20;99.90
7648;DHT22;3866;48.020;11.720;2023-06-22T02:52:41;19.20;99.90
7648;DHT22;3866;48.020;11.720;2023-06-22T02:55:08;19.10;99.90
7648;DHT22;3866;48.020;11.720;2023-06-22T02:57:35;19.00;99.90
7648;DHT22;3866;48.020;11.720;2023-06-22T03:00:03;19.10;99.90
7648;DHT22;3866;48.020;11.720;2023-06-22T03:02:42;19.30;99.90
7648;DHT22;3866;48.020;11.720;2023-06-22T03:05:09;19.50;99.90
7648;DHT22;3866;48.020;11.720;2023-06-22T03:07:40;19.40;99.90
7648;DHT22;3866;48.020;11.720;2023-06-22T03:10:08;19.30;99.90
7648;DHT22;3866;48.020;11.720;2023-06-22T03:12:36;19.30;99.90
7648;DHT22;3866;48.020;11.720;2023-06-22T03:15:04;19.20;99.90
7648;DHT22;3866;48.020;11.720;2023-06-22T03:17:31;19.00;99.90
7648;DHT22;3866;48.020;11.720;2023-06-22T03:19:57;19.00;99.90
7648;DHT22;3866;48.020;11.720;2023-06-22T03:22:24;19.00;99.90
7648;DHT22;3866;48.020;11.720;2023-06-22T03:24:52;19.20;99.90
7648;DHT22;3866;48.020;11.720;2023-06-22T03:27:19;19.30;99.90
7648;DHT22;3866;48.020;11.720;2023-06-22T03:29:47;19.20;99.90
7648;DHT22;3866;48.020;11.720;2023-06-22T03:32:13;19.10;99.90
7648;DHT22;3866;48.020;11.720;2023-06-22T03:34:40;19.10;99.90
7648;DHT22;3866;48.020;11.720;2023-06-22T03:37:12;19.10;99.90
7648;DHT22;3866;48.020;11.720;2023-06-22T03:39:39;19.10;99.90
7648;DHT22;3866;48.020;11.720;2023-06-22T03:42:08;19.00;99.90
7648;DHT22;3866;48.020;11.720;2023-06-22T03:44:35;19.00;99.90
7648;DHT22;3866;48.020;11.720;2023-06-22T03:47:02;18.70;99.90
7648;DHT22;3866;48.020;11.720;2023-06-22T03:49:29;18.50;99.90
7648;DHT22;3866;48.020;11.720;2023-06-22T03:51:56;18.50;99.90
7648;DHT22;3866;48.020;11.720;2023-06-22T03:54:23;18.40;99.90
7648;DHT22;3866;48.020;11.720;2023-06-22T03:56:49;18.40;99.90
7648;DHT22;3866;48.020;11.720;2023-06-22T03:59:18;18.40;99.90
7648;DHT22;3866;48.020;11.720;2023-06-22T04:01:44;18.40;99.90
7648;DHT22;3866;48.020;11.720;2023-06-22T04:04:12;18.40;99.90
7648;DHT22;3866;48.020;11.720;2023-06-22T04:06:39;18.60;99.90
7648;DHT22;3866;48.020;11.720;2023-06-22T04:09:06;18.60;99.90
7648;DHT22;3866;48.020;11.720;2023-06-22T04:11:33;18.60;99.90
7648;DHT22;3866;48.020;11.720;2023-06-22T04:14:00;18.60;99.90
7648;DHT22;3866;48.020;11.720;2023-06-22T04:16:28;18.70;99.90
7648;DHT22;3866;48.020;11.720;2023-06-22T04:18:55;19.00;99.90
7648;DHT22;3866;48.020;11.720;2023-06-22T04:21:22;19.20;99.90
7648;DHT22;3866;48.020;11.720;2023-06-22T04:23:48;19.10;99.90
7648;DHT22;3866;48.020;11.720;2023-06-22T04:26:15;19.10;99.90
7648;DHT22;3866;48.020;11.720;2023-06-22T04:28:42;19.10;99.90
7648;DHT22;3866;48.020;11.720;2023-06-22T04:31:17;19.20;99.90
7648;DHT22;3866;48.020;11.720;2023-06-22T04:33:45;19.20;99.90
7648;DHT22;3866;48.020;11.720;2023-06-22T04:36:12;19.30;99.90
7648;DHT22;3866;48.020;11.720;2023-06-22T04:38:39;19.20;99.90
7648;DHT22;3866;48.020;11.720;2023-06-22T04:41:06;19.50;99.90
7648;DHT22;3866;48.020;11.720;2023-06-22T04:43:35;19.70;99.90
7648;DHT22;3866;48.020;11.720;2023-06-22T04:46:01;19.90;99.90
7648;DHT22;3866;48.020;11.720;2023-06-22T04:48:29;19.90;99.90
7648;DHT22;3866;48.020;11.720;2023-06-22T04:50:59;19.90;99.90
7648;DHT22;3866;48.020;11.720;2023-06-22T04:53:29;19.80;99.90
7648;DHT22;3866;48.020;11.720;2023-06-22T04:55:56;19.80;99.90
7648;DHT22;3866;48.020;11.720;2023-06-22T04:58:23;19.90;99.90
7648;DHT22;3866;48.020;11.720;2023-06-22T05:00:52;20.10;99.90
7648;DHT22;3866;48.020;11.720;2023-06-22T05:03:22;20.30;99.90
7648;DHT22;3866;48.020;11.720;2023-06-22T05:05:51;20.40;99.90
7648;DHT22;3866;48.020;11.720;2023-06-22T05:08:20;20.30;99.90
7648;DHT22;3866;48.020;11.720;2023-06-22T05:10:54;20.20;99.90
7648;DHT22;3866;48.020;11.720;2023-06-22T05:13:21;20.20;99.90
7648;DHT22;3866;48.020;11.720;2023-06-22T05:15:51;20.20;99.90
7648;DHT22;3866;48.020;11.720;2023-06-22T05:18:20;20.10;99.90
7648;DHT22;3866;48.020;11.720;2023-06-22T05:20:48;20.10;99.90
7648;DHT22;3866;48.020;11.720;2023-06-22T05:23:15;20.30;99.90
7648;DHT22;3866;48.020;11.720;2023-06-22T05:25:44;20.30;99.90
7648;DHT22;3866;48.020;11.720;2023-06-22T05:28:10;20.50;99.90
7648;DHT22;3866;48.020;11.720;2023-06-22T05:30:38;20.60;99.90
7648;DHT22;3866;48.020;11.720;2023-06-22T05:33:05;20.60;99.90
7648;DHT22;3866;48.020;11.720;2023-06-22T05:35:31;20.70;99.90
7648;DHT22;3866;48.020;11.720;2023-06-22T05:37:58;20.80;99.90
7648;DHT22;3866;48.020;11.720;2023-06-22T05:40:25;20.90;99.90
7648;DHT22;3866;48.020;11.720;2023-06-22T05:42:54;20.90;99.90
7648;DHT22;3866;48.020;11.720;2023-06-22T05:45:20;21.20;99.90
7648;DHT22;3866;48.020;11.720;2023-06-22T05:47:47;21.30;99.90
7648;DHT22;3866;48.020;11.720;2023-06-22T05:50:14;21.30;99.90
7648;DHT22;3866;48.020;11.720;2023-06-22T05:52:41;21.20;99.90
7648;DHT22;3866;48.020;11.720;2023-06-22T05:55:08;21.00;99.90
7648;DHT22;3866;48.020;11.720;2023-06-22T05:57:35;21.10;99.90
7648;DHT22;3866;48.020;11.720;2023-06-22T06:00:05;21.20;99.90
7648;DHT22;3866;48.020;11.720;2023-06-22T06:02:36;21.40;99.90
7648;DHT22;3866;48.020;11.720;2023-06-22T06:05:03;21.60;99.90
7648;DHT22;3866;48.020;11.720;2023-06-22T06:07:30;21.80;99.90
7648;DHT22;3866;48.020;11.720;2023-06-22T06:09:59;21.80;99.90
7648;DHT22;3866;48.020;11.720;2023-06-22T06:12:26;21.90;99.90
7648;DHT22;3866;48.020;11.720;2023-06-22T06:14:53;22.10;99.90
7648;DHT22;3866;48.020;11.720;2023-06-22T06:17:23;22.20;99.90
7648;DHT22;3866;48.020;11.720;2023-06-22T06:19:50;22.30;99.90
7648;DHT22;3866;48.020;11.720;2023-06-22T06:22:17;22.30;99.90
7648;DHT22;3866;48.020;11.720;2023-06-22T06:24:44;22.10;99.90
7648;DHT22;3866;48.020;11.720;2023-06-22T06:27:11;22.10;99.90
7648;DHT22;3866;48.020;11.720;2023-06-22T06:29:37;22.00;99.90
7648;DHT22;3866;48.020;11.720;2023-06-22T06:32:05;22.20;99.90
7648;DHT22;3866;48.020;11.720;2023-06-22T06:34:33;22.60;99.90
7648;DHT22;3866;48.020;11.720;2023-06-22T06:37:00;22.90;99.90
7648;DHT22;3866;48.020;11.720;2023-06-22T06:39:27;22.90;99.90
7648;DHT22;3866;48.020;11.720;2023-06-22T06:41:53;22.90;99.90
7648;DHT22;3866;48.020;11.720;2023-06-22T06:44:20;23.10;99.90
7648;DHT22;3866;48.020;11.720;2023-06-22T06:46:47;23.40;99.90
7648;DHT22;3866;48.020;11.720;2023-06-22T06:49:14;23.50;99.90
7648;DHT22;3866;48.020;11.720;2023-06-22T06:51:42;23.50;99.90
7648;DHT22;3866;48.020;11.720;2023-06-22T06:54:09;23.40;99.90
7648;DHT22;3866;48.020;11.720;2023-06-22T06:56:36;23.60;99.90
7648;DHT22;3866;48.020;11.720;2023-06-22T06:59:03;23.70;99.90
7648;DHT22;3866;48.020;11.720;2023-06-22T07:01:30;24.10;99.90
7648;DHT22;3866;48.020;11.720;2023-06-22T07:03:59;24.60;99.90
7648;DHT22;3866;48.020;11.720;2023-06-22T07:06:26;24.80;99.90
7648;DHT22;3866;48.020;11.720;2023-06-22T07:08:59;24.50;99.90
7648;DHT22;3866;48.020;11.720;2023-06-22T07:11:26;24.40;99.90
7648;DHT22;3866;48.020;11.720;2023-06-22T07:13:53;24.70;99.90
7648;DHT22;3866;48.020;11.720;2023-06-22T07:16:20;24.70;99.90
7648;DHT22;3866;48.020;11.720;2023-06-22T07:18:46;24.60;99.90
7648;DHT22;3866;48.020;11.720;2023-06-22T07:21:13;24.60;99.90
7648;DHT22;3866;48.020;11.720;2023-06-22T07:23:40;24.70;99.90
7648;DHT22;3866;48.020;11.720;2023-06-22T07:26:08;25.10;99.90
7648;DHT22;3866;48.020;11.720;2023-06-22T07:28:35;25.40;99.90
7648;DHT22;3866;48.020;11.720;2023-06-22T07:31:03;26.00;99.90
7648;DHT22;3866;48.020;11.720;2023-06-22T07:33:30;26.50;99.90
7648;DHT22;3866;48.020;11.720;2023-06-22T07:35:57;26.80;99.90
7648;DHT22;3866;48.020;11.720;2023-06-22T07:38:24;26.80;99.90
7648;DHT22;3866;48.020;11.720;2023-06-22T07:40:51;27.10;99.90
7648;DHT22;3866;48.020;11.720;2023-06-22T07:43:20;27.30;99.90
7648;DHT22;3866;48.020;11.720;2023-06-22T07:45:48;27.40;99.90
7648;DHT22;3866;48.020;11.720;2023-06-22T07:48:19;27.60;99.90
7648;DHT22;3866;48.020;11.720;2023-06-22T07:50:46;28.10;99.90
7648;DHT22;3866;48.020;11.720;2023-06-22T07:53:13;28.00;99.90
7648;DHT22;3866;48.020;11.720;2023-06-22T07:55:40;27.90;99.90
7648;DHT22;3866;48.020;11.720;2023-06-22T07:58:07;27.40;99.90
7648;DHT22;3866;48.020;11.720;2023-06-22T08:00:35;27.70;99.90
7648;DHT22;3866;48.020;11.720;2023-06-22T08:03:02;27.90;99.90
7648;DHT22;3866;48.020;11.720;2023-06-22T08:05:30;27.50;99.90
7648;DHT22;3866;48.020;11.720;2023-06-22T08:07:57;27.40;99.90
7648;DHT22;3866;48.020;11.720;2023-06-22T08:10:25;27.60;99.90
7648;DHT22;3866;48.020;11.720;2023-06-22T08:12:52;27.80;99.90
7648;DHT22;3866;48.020;11.720;2023-06-22T08:15:19;28.00;99.90
7648;DHT22;3866;48.020;11.720;2023-06-22T08:17:48;28.50;99.90
7648;DHT22;3866;48.020;11.720;2023-06-22T08:20:15;28.80;99.90
7648;DHT22;3866;48.020;11.720;2023-06-22T08:22:42;28.70;99.90
7648;DHT22;3866;48.020;11.720;2023-06-22T08:25:10;29.10;99.90
7648;DHT22;3866;48.020;11.720;2023-06-22T08:27:38;29.10;99.90
7648;DHT22;3866;48.020;11.720;2023-06-22T08:30:06;28.20;99.90
7648;DHT22;3866;48.020;11.720;2023-06-22T08:32:33;28.60;99.90
7648;DHT22;3866;48.020;11.720;2023-06-22T08:35:02;28.80;99.90
7648;DHT22;3866;48.020;11.720;2023-06-22T08:37:29;29.20;99.90
7648;DHT22;3866;48.020;11.720;2023-06-22T08:39:57;29.40;99.90
7648;DHT22;3866;48.020;11.720;2023-06-22T08:42:24;28.90;99.90
7648;DHT22;3866;48.020;11.720;2023-06-22T08:44:51;28.80;99.90
7648;DHT22;3866;48.020;11.720;2023-06-22T08:47:19;28.70;99.90
7648;DHT22;3866;48.020;11.720;2023-06-22T08:49:46;28.50;99.90
7648;DHT22;3866;48.020;11.720;2023-06-22T08:52:15;28.40;99.90
7648;DHT22;3866;48.020;11.720;2023-06-22T08:54:42;28.50;99.90
7648;DHT22;3866;48.020;11.720;2023-06-22T08:57:09;28.50;99.90
7648;DHT22;3866;48.020;11.720;2023-06-22T08:59:36;29.00;99.90
7648;DHT22;3866;48.020;11.720;2023-06-22T09:02:03;29.20;99.90
7648;DHT22;3866;48.020;11.720;2023-06-22T09:04:31;29.00;99.90
7648;DHT22;3866;48.020;11.720;2023-06-22T09:07:00;28.80;99.90
7648;DHT22;3866;48.020;11.720;2023-06-22T09:09:28;28.70;99.90
7648;DHT22;3866;48.020;11.720;2023-06-22T09:11:55;29.00;99.90
7648;DHT22;3866;48.020;11.720;2023-06-22T09:14:22;28.90;99.90
7648;DHT22;3866;48.020;11.720;2023-06-22T09:16:51;29.20;99.90
7648;DHT22;3866;48.020;11.720;2023-06-22T09:19:18;29.20;99.90
7648;DHT22;3866;48.020;11.720;2023-06-22T09:21:45;29.40;99.90
7648;DHT22;3866;48.020;11.720;2023-06-22T09:24:12;29.50;99.90
7648;DHT22;3866;48.020;11.720;2023-06-22T09:26:41;29.90;99.90
7648;DHT22;3866;48.020;11.720;2023-06-22T09:29:07;30.20;99.90
7648;DHT22;3866;48.020;11.720;2023-06-22T09:31:34;30.10;99.90
7648;DHT22;3866;48.020;11.720;2023-06-22T09:34:01;29.50;99.90
7648;DHT22;3866;48.020;11.720;2023-06-22T09:36:28;29.70;99.90
7648;DHT22;3866;48.020;11.720;2023-06-22T09:38:55;30.00;99.90
7648;DHT22;3866;48.020;11.720;2023-06-22T09:41:24;30.00;99.90
7648;DHT22;3866;48.020;11.720;2023-06-22T09:43:52;29.50;99.90
7648;DHT22;3866;48.020;11.720;2023-06-22T09:46:19;29.50;99.90
7648;DHT22;3866;48.020;11.720;2023-06-22T09:48:50;29.20;99.90
7648;DHT22;3866;48.020;11.720;2023-06-22T09:51:17;29.20;99.90
7648;DHT22;3866;48.020;11.720;2023-06-22T09:53:44;29.10;99.90
7648;DHT22;3866;48.020;11.720;2023-06-22T09:56:11;29.30;99.90
7648;DHT22;3866;48.020;11.720;2023-06-22T09:58:40;29.40;99.90
7648;DHT22;3866;48.020;11.720;2023-06-22T10:01:09;29.60;99.90
7648;DHT22;3866;48.020;11.720;2023-06-22T10:03:36;29.50;99.90
7648;DHT22;3866;48.020;11.720;2023-06-22T10:06:03;29.50;99.90
7648;DHT22;3866;48.020;11.720;2023-06-22T10:08:30;29.70;99.90
7648;DHT22;3866;48.020;11.720;2023-06-22T10:11:00;30.00;99.90
7648;DHT22;3866;48.020;11.720;2023-06-22T10:13:26;30.20;99.90
7648;DHT22;3866;48.020;11.720;2023-06-22T10:15:53;30.50;99.90
7648;DHT22;3866;48.020;11.720;2023-06-22T10:18:22;30.40;99.90
7648;DHT22;3866;48.020;11.720;2023-06-22T10:20:50;30.20;99.90
7648;DHT22;3866;48.020;11.720;2023-06-22T10:23:17;30.00;99.90
7648;DHT22;3866;48.020;11.720;2023-06-22T10:25:44;30.00;99.90
7648;DHT22;3866;48.020;11.720;2023-06-22T10:28:11;30.10;99.90
7648;DHT22;3866;48.020;11.720;2023-06-22T10:30:39;30.10;99.90
7648;DHT22;3866;48.020;11.720;2023-06-22T10:33:06;30.00;99.90
7648;DHT22;3866;48.020;11.720;2023-06-22T10:35:35;30.20;99.90
7648;DHT22;3866;48.020;11.720;2023-06-22T10:38:03;30.30;99.90
7648;DHT22;3866;48.020;11.720;2023-06-22T10:40:31;30.60;99.90
7648;DHT22;3866;48.020;11.720;2023-06-22T10:42:57;30.50;99.90
7648;DHT22;3866;48.020;11.720;2023-06-22T10:45:24;30.30;99.90
7648;DHT22;3866;48.020;11.720;2023-06-22T10:47:52;30.30;99.90
7648;DHT22;3866;48.020;11.720;2023-06-22T10:50:19;30.60;99.90
7648;DHT22;3866;48.020;11.720;2023-06-22T10:52:48;30.70;99.90
7648;DHT22;3866;48.020;11.720;2023-06-22T10:55:14;30.90;99.90
7648;DHT22;3866;48.020;11.720;2023-06-22T10:57:41;30.90;99.90
7648;DHT22;3866;48.020;11.720;2023-06-22T11:00:11;30.90;99.90
7648;DHT22;3866;48.020;11.720;2023-06-22T11:02:38;31.00;99.90
7648;DHT22;3866;48.020;11.720;2023-06-22T11:05:05;31.10;99.90
7648;DHT22;3866;48.020;11.720;2023-06-22T11:07:33;31.20;99.90
7648;DHT22;3866;48.020;11.720;2023-06-22T11:10:02;31.30;99.90
7648;DHT22;3866;48.020;11.720;2023-06-22T11:12:29;31.50;99.90
7648;DHT22;3866;48.020;11.720;2023-06-22T11:14:56;31.50;99.90
7648;DHT22;3866;48.020;11.720;2023-06-22T11:17:23;31.70;99.90
7648;DHT22;3866;48.020;11.720;2023-06-22T11:19:50;31.90;99.90
7648;DHT22;3866;48.020;11.720;2023-06-22T11:22:17;32.00;99.90
7648;DHT22;3866;48.020;11.720;2023-06-22T11:24:44;32.10;99.90
7648;DHT22;3866;48.020;11.720;2023-06-22T11:27:12;31.90;99.90
7648;DHT22;3866;48.020;11.720;2023-06-22T11:29:39;31.60;99.90
7648;DHT22;3866;48.020;11.720;2023-06-22T11:32:07;31.30;99.90
7648;DHT22;3866;48.020;11.720;2023-06-22T11:34:34;31.30;99.90
7648;DHT22;3866;48.020;11.720;2023-06-22T11:37:01;31.30;99.90
7648;DHT22;3866;48.020;11.720;2023-06-22T11:39:28;31.40;99.90
7648;DHT22;3866;48.020;11.720;2023-06-22T11:41:55;31.60;99.90
7648;DHT22;3866;48.020;11.720;2023-06-22T11:44:23;32.00;99.90
7648;DHT22;3866;48.020;11.720;2023-06-22T11:46:50;32.20;99.90
7648;DHT22;3866;48.020;11.720;2023-06-22T11:49:16;32.40;99.90
7648;DHT22;3866;48.020;11.720;2023-06-22T11:51:43;32.70;99.90
7648;DHT22;3866;48.020;11.720;2023-06-22T11:54:10;33.00;99.90
7648;DHT22;3866;48.020;11.720;2023-06-22T11:56:37;32.90;99.90
7648;DHT22;3866;48.020;11.720;2023-06-22T11:59:04;33.00;99.90
7648;DHT22;3866;48.020;11.720;2023-06-22T12:01:32;33.10;99.90
7648;DHT22;3866;48.020;11.720;2023-06-22T12:03:59;33.40;99.90
7648;DHT22;3866;48.020;11.720;2023-06-22T12:06:26;33.50;99.90
7648;DHT22;3866;48.020;11.720;2023-06-22T12:08:53;33.60;99.90
7648;DHT22;3866;48.020;11.720;2023-06-22T12:11:20;33.80;99.90
7648;DHT22;3866;48.020;11.720;2023-06-22T12:13:46;33.70;99.90
7648;DHT22;3866;48.020;11.720;2023-06-22T12:16:13;33.70;99.90
7648;DHT22;3866;48.020;11.720;2023-06-22T12:18:42;33.70;99.90
7648;DHT22;3866;48.020;11.720;2023-06-22T12:21:08;34.10;99.90
7648;DHT22;3866;48.020;11.720;2023-06-22T12:23:35;33.60;99.90
7648;DHT22;3866;48.020;11.720;2023-06-22T12:26:02;34.10;99.90
7648;DHT22;3866;48.020;11.720;2023-06-22T12:28:29;35.10;99.90
7648;DHT22;3866;48.020;11.720;2023-06-22T12:30:56;34.90;99.90
7648;DHT22;3866;48.020;11.720;2023-06-22T12:33:23;35.10;99.90
7648;DHT22;3866;48.020;11.720;2023-06-22T12:35:51;35.00;99.90
7648;DHT22;3866;48.020;11.720;2023-06-22T12:38:18;34.70;99.90
7648;DHT22;3866;48.020;11.720;2023-06-22T12:40:45;34.90;99.90
7648;DHT22;3866;48.020;11.720;2023-06-22T12:43:12;35.10;99.90
7648;DHT22;3866;48.020;11.720;2023-06-22T12:45:39;35.20;99.90
7648;DHT22;3866;48.020;11.720;2023-06-22T12:48:06;35.00;99.90
7648;DHT22;3866;48.020;11.720;2023-06-22T12:50:34;34.60;99.90
7648;DHT22;3866;48.020;11.720;2023-06-22T12:53:02;34.80;99.90
7648;DHT22;3866;48.020;11.720;2023-06-22T12:55:29;35.00;99.90
7648;DHT22;3866;48.020;11.720;2023-06-22T12:57:56;35.50;99.90
7648;DHT22;3866;48.020;11.720;2023-06-22T13:00:23;35.60;99.90
7648;DHT22;3866;48.020;11.720;2023-06-22T13:02:50;34.60;99.90
7648;DHT22;3866;48.020;11.720;2023-06-22T13:05:17;34.10;99.90
7648;DHT22;3866;48.020;11.720;2023-06-22T13:07:44;33.80;99.90
7648;DHT22;3866;48.020;11.720;2023-06-22T13:10:12;33.90;99.90
7648;DHT22;3866;48.020;11.720;2023-06-22T13:12:39;33.80;99.90
7648;DHT22;3866;48.020;11.720;2023-06-22T13:15:07;33.80;99.90
7648;DHT22;3866;48.020;11.720;2023-06-22T13:17:34;34.10;99.90
7648;DHT22;3866;48.020;11.720;2023-06-22T13:20:01;33.60;99.90
7648;DHT22;3866;48.020;11.720;2023-06-22T13:22:30;33.80;99.90
7648;DHT22;3866;48.020;11.720;2023-06-22T13:24:58;33.80;99.90
7648;DHT22;3866;48.020;11.720;2023-06-22T13:27:27;34.10;99.90
7648;DHT22;3866;48.020;11.720;2023-06-22T13:29:54;33.90;99.90
7648;DHT22;3866;48.020;11.720;2023-06-22T13:32:21;33.80;99.90
7648;DHT22;3866;48.020;11.720;2023-06-22T13:34:48;33.90;99.90
7648;DHT22;3866;48.020;11.720;2023-06-22T13:37:14;33.80;99.90
7648;DHT22;3866;48.020;11.720;2023-06-22T13:39:41;34.00;99.90
7648;DHT22;3866;48.020;11.720;2023-06-22T13:42:08;34.30;99.90
7648;DHT22;3866;48.020;11.720;2023-06-22T13:44:36;34.60;99.90
7648;DHT22;3866;48.020;11.720;2023-06-22T13:47:04;34.50;99.90
7648;DHT22;3866;48.020;11.720;2023-06-22T13:49:31;34.50;99.90
7648;DHT22;3866;48.020;11.720;2023-06-22T13:51:58;34.70;99.90
7648;DHT22;3866;48.020;11.720;2023-06-22T13:54:25;34.50;99.90
7648;DHT22;3866;48.020;11.720;2023-06-22T13:56:52;34.70;99.90
7648;DHT22;3866;48.020;11.720;2023-06-22T13:59:19;35.20;99.90
7648;DHT22;3866;48.020;11.720;2023-06-22T14:01:47;35.40;99.90
7648;DHT22;3866;48.020;11.720;2023-06-22T14:04:14;35.40;99.90
7648;DHT22;3866;48.020;11.720;2023-06-22T14:06:41;35.10;99.90
7648;DHT22;3866;48.020;11.720;2023-06-22T14:09:08;35.10;99.90
7648;DHT22;3866;48.020;11.720;2023-06-22T14:11:35;35.40;99.90
7648;DHT22;3866;48.020;11.720;2023-06-22T14:14:02;35.40;99.90
7648;DHT22;3866;48.020;11.720;2023-06-22T14:16:29;34.90;99.90
7648;DHT22;3866;48.020;11.720;2023-06-22T14:18:58;34.40;99.90
7648;DHT22;3866;48.020;11.720;2023-06-22T14:21:25;34.40;99.90
7648;DHT22;3866;48.020;11.720;2023-06-22T14:23:52;34.50;99.90
7648;DHT22;3866;48.020;11.720;2023-06-22T14:26:19;34.60;99.90
7648;DHT22;3866;48.020;11.720;2023-06-22T14:28:46;34.70;99.90
7648;DHT22;3866;48.020;11.720;2023-06-22T14:31:14;34.80;99.90
7648;DHT22;3866;48.020;11.720;2023-06-22T14:33:48;34.70;99.90
7648;DHT22;3866;48.020;11.720;2023-06-22T14:36:16;34.60;99.90
7648;DHT22;3866;48.020;11.720;2023-06-22T14:38:44;34.40;99.90
7648;DHT22;3866;48.020;11.720;2023-06-22T14:41:11;34.20;99.90
7648;DHT22;3866;48.020;11.720;2023-06-22T14:43:38;34.30;99.90
7648;DHT22;3866;48.020;11.720;2023-06-22T14:46:05;34.30;99.90
7648;DHT22;3866;48.020;11.720;2023-06-22T14:48:32;34.50;99.90
7648;DHT22;3866;48.020;11.720;2023-06-22T14:50:59;34.70;99.90
7648;DHT22;3866;48.020;11.720;2023-06-22T14:53:27;34.60;99.90
7648;DHT22;3866;48.020;11.720;2023-06-22T14:55:54;34.40;99.90
7648;DHT22;3866;48.020;11.720;2023-06-22T14:58:21;34.40;99.90
7648;DHT22;3866;48.020;11.720;2023-06-22T15:00:48;34.40;99.90
7648;DHT22;3866;48.020;11.720;2023-06-22T15:03:15;34.40;99.90
7648;DHT22;3866;48.020;11.720;2023-06-22T15:05:47;34.30;99.90
7648;DHT22;3866;48.020;11.720;2023-06-22T15:08:14;34.30;99.90
7648;DHT22;3866;48.020;11.720;2023-06-22T15:10:42;34.40;99.90
7648;DHT22;3866;48.020;11.720;2023-06-22T15:13:09;34.50;99.90
7648;DHT22;3866;48.020;11.720;2023-06-22T15:15:36;34.50;99.90
7648;DHT22;3866;48.020;11.720;2023-06-22T15:18:03;34.40;99.90
7648;DHT22;3866;48.020;11.720;2023-06-22T15:20:30;34.30;99.90
7648;DHT22;3866;48.020;11.720;2023-06-22T15:22:57;34.20;99.90
7648;DHT22;3866;48.020;11.720;2023-06-22T15:25:24;34.40;99.90
7648;DHT22;3866;48.020;11.720;2023-06-22T15:27:52;34.60;99.90
7648;DHT22;3866;48.020;11.720;2023-06-22T15:30:19;34.50;99.90
7648;DHT22;3866;48.020;11.720;2023-06-22T15:32:46;34.20;99.90
7648;DHT22;3866;48.020;11.720;2023-06-22T15:35:14;34.20;99.90
7648;DHT22;3866;48.020;11.720;2023-06-22T15:37:44;34.30;99.90
7648;DHT22;3866;48.020;11.720;2023-06-22T15:40:11;34.20;99.90
7648;DHT22;3866;48.020;11.720;2023-06-22T15:42:38;34.00;99.90
7648;DHT22;3866;48.020;11.720;2023-06-22T15:45:07;34.10;99.90
7648;DHT22;3866;48.020;11.720;2023-06-22T15:47:34;34.10;99.90